createdAt,value
2022-11-15T00:01:42.604Z,96906.38
2022-11-15T00:04:29.779Z,96902.22
2022-11-15T00:07:40.293Z,96904.66
2022-11-15T00:10:23.840Z,96890.94
2022-11-15T00:13:13.340Z,96896.63
2022-11-15T00:16:01.218Z,96892.56
2022-11-15T00:18:50.961Z,96895.50
2022-11-15T00:21:38.938Z,96900.34
2022-11-15T00:24:26.375Z,96891.41
2022-11-15T00:27:13.668Z,96894.03
2022-11-15T00:30:01.338Z,96896.69
2022-11-15T00:32:48.309Z,96886.72
2022-11-15T00:35:38.828Z,96890.84
2022-11-15T00:38:26.077Z,96884.41
2022-11-15T00:41:12.989Z,96885.25
2022-11-15T00:44:00.124Z,96888.50
2022-11-15T00:46:47.812Z,96890.97
2022-11-15T00:49:34.951Z,96882.88
2022-11-15T00:52:23.855Z,96876.97
2022-11-15T00:55:16.971Z,96873.47
2022-11-15T00:58:04.747Z,96875.59
2022-11-15T01:00:51.973Z,96869.41
2022-11-15T01:03:51.006Z,96867.53
2022-11-15T01:06:47.779Z,96857.50
2022-11-15T01:09:35.946Z,96851.41
2022-11-15T01:12:23.414Z,96848.00
2022-11-15T01:15:11.221Z,96856.69
2022-11-15T01:18:09.642Z,96852.84
2022-11-15T01:20:56.905Z,96852.75
2022-11-15T01:23:44.369Z,96855.47
2022-11-15T01:26:32.423Z,96858.72
2022-11-15T01:29:19.350Z,96847.63
2022-11-15T01:32:06.652Z,96844.41
2022-11-15T01:34:54.160Z,96838.50
2022-11-15T01:37:41.080Z,96839.53
2022-11-15T01:40:28.234Z,96834.59
2022-11-15T01:43:29.162Z,96826.69
2022-11-15T01:46:32.716Z,96822.84
2022-11-15T01:49:25.474Z,96822.53
2022-11-15T01:52:16.445Z,96826.16
2022-11-15T01:55:11.943Z,96825.97
2022-11-15T01:58:03.233Z,96818.41
2022-11-15T02:00:52.537Z,96817.38
2022-11-15T02:03:48.798Z,96815.28
2022-11-15T02:06:37.969Z,96807.78
2022-11-15T02:09:25.613Z,96796.19
2022-11-15T02:12:16.630Z,96797.88
2022-11-15T02:15:05.930Z,96791.19
2022-11-15T02:18:18.643Z,96792.63
2022-11-15T02:21:22.183Z,96788.31
2022-11-15T02:24:35.223Z,96784.03
2022-11-15T02:27:52.662Z,96775.41
2022-11-15T02:30:46.835Z,96778.34
2022-11-15T02:33:44.570Z,96773.22
2022-11-15T02:36:43.775Z,96776.44
2022-11-15T02:39:41.578Z,96778.53
2022-11-15T02:42:50.226Z,96766.94
2022-11-15T02:45:45.569Z,96775.91
2022-11-15T02:48:34.408Z,96782.75
2022-11-15T02:51:22.518Z,96776.59
2022-11-15T02:54:12.929Z,96764.50
2022-11-15T02:57:09.004Z,96770.28
2022-11-15T03:00:09.662Z,96768.97
2022-11-15T03:03:52.270Z,96772.47
2022-11-15T03:06:50.425Z,96770.63
2022-11-15T03:09:48.851Z,96761.22
2022-11-15T03:12:43.663Z,96759.13
2022-11-15T03:15:34.571Z,96764.56
2022-11-15T03:18:29.156Z,96760.50
2022-11-15T03:21:33.132Z,96764.53
2022-11-15T03:24:26.269Z,96759.69
2022-11-15T03:27:19.685Z,96761.59
2022-11-15T03:30:11.052Z,96758.38
2022-11-15T03:33:00.881Z,96759.19
2022-11-15T03:35:51.704Z,96761.38
2022-11-15T03:38:40.874Z,96767.56
2022-11-15T03:41:37.533Z,96760.59
2022-11-15T03:44:38.833Z,96759.53
2022-11-15T03:47:34.642Z,96756.59
2022-11-15T03:50:24.729Z,96752.28
2022-11-15T03:53:14.244Z,96757.66
2022-11-15T03:56:01.685Z,96742.31
2022-11-15T03:58:49.414Z,96744.19
2022-11-15T04:01:38.200Z,96740.44
2022-11-15T04:04:25.198Z,96740.69
2022-11-15T04:07:12.612Z,96738.00
2022-11-15T04:10:04.695Z,96732.09
2022-11-15T04:12:51.792Z,96717.53
2022-11-15T04:15:39.353Z,96721.03
2022-11-15T04:18:26.764Z,96701.94
2022-11-15T04:21:31.926Z,96705.13
2022-11-15T04:24:19.242Z,96703.50
2022-11-15T04:27:07.468Z,96702.94
2022-11-15T04:29:54.724Z,96707.06
2022-11-15T04:32:41.791Z,96707.84
2022-11-15T04:35:28.891Z,96704.72
2022-11-15T04:38:15.980Z,96710.69
2022-11-15T04:41:02.888Z,96714.50
2022-11-15T04:43:51.059Z,96718.84
2022-11-15T04:46:38.511Z,96723.41
2022-11-15T04:49:25.314Z,96718.03
2022-11-15T04:52:12.609Z,96724.78
2022-11-15T04:55:03.583Z,96721.53
2022-11-15T04:58:01.710Z,96705.69
2022-11-15T05:00:49.922Z,96709.19
2022-11-15T05:03:54.803Z,96708.66
2022-11-15T05:06:42.221Z,96701.66
2022-11-15T05:09:29.457Z,96698.44
2022-11-15T05:12:16.080Z,96697.91
2022-11-15T05:15:03.321Z,96705.13
2022-11-15T05:17:51.339Z,96691.41
2022-11-15T05:20:38.275Z,96695.19
2022-11-15T05:23:26.430Z,96694.66
2022-11-15T05:26:13.965Z,96696.28
2022-11-15T05:29:01.863Z,96683.34
2022-11-15T05:31:49.031Z,96682.28
2022-11-15T05:34:37.112Z,96678.50
2022-11-15T05:37:24.388Z,96670.97
2022-11-15T05:40:11.739Z,96673.91
2022-11-15T05:42:59.678Z,96663.41
2022-11-15T05:45:47.196Z,96667.75
2022-11-15T05:48:36.297Z,96656.97
2022-11-15T05:51:25.363Z,96668.28
2022-11-15T05:54:13.271Z,96670.44
2022-11-15T05:57:00.926Z,96674.72
2022-11-15T05:59:48.224Z,96670.66
2022-11-15T06:02:35.226Z,96667.16
2022-11-15T06:05:22.837Z,96665.78
2022-11-15T06:08:11.009Z,96654.50
2022-11-15T06:10:57.632Z,96656.94
2022-11-15T06:13:44.923Z,96661.25
2022-11-15T06:16:32.051Z,96668.00
2022-11-15T06:19:19.573Z,96660.72
2022-11-15T06:22:06.519Z,96654.81
2022-11-15T06:24:54.600Z,96654.25
2022-11-15T06:27:41.765Z,96656.69
2022-11-15T06:30:29.692Z,96661.25
2022-11-15T06:33:16.671Z,96661.25
2022-11-15T06:36:04.255Z,96663.41
2022-11-15T06:38:52.078Z,96667.75
2022-11-15T06:41:40.080Z,96663.72
2022-11-15T06:44:27.060Z,96672.56
2022-11-15T06:47:13.850Z,96673.94
2022-11-15T06:50:00.960Z,96676.63
2022-11-15T06:52:48.242Z,96676.88
2022-11-15T06:55:35.525Z,96684.69
2022-11-15T06:58:24.595Z,96686.56
2022-11-15T07:01:14.188Z,96691.97
2022-11-15T07:04:01.565Z,96690.34
2022-11-15T07:06:49.360Z,96684.41
2022-11-15T07:09:36.155Z,96687.38
2022-11-15T07:12:23.399Z,96683.88
2022-11-15T07:15:12.382Z,96686.53
2022-11-15T07:18:03.071Z,96678.44
2022-11-15T07:20:50.131Z,96670.59
2022-11-15T07:23:39.773Z,96667.31
2022-11-15T07:26:26.363Z,96666.94
2022-11-15T07:29:13.550Z,96668.09
2022-11-15T07:32:01.846Z,96680.94
2022-11-15T07:34:48.908Z,96680.78
2022-11-15T07:37:35.577Z,96690.47
2022-11-15T07:40:22.911Z,96684.22
2022-11-15T07:43:11.265Z,96672.44
2022-11-15T07:45:59.577Z,96687.63
2022-11-15T07:48:48.257Z,96684.63
2022-11-15T07:51:35.405Z,96674.03
2022-11-15T07:54:22.508Z,96676.53
2022-11-15T07:57:11.665Z,96673.22
2022-11-15T07:59:58.855Z,96663.41
2022-11-15T08:02:45.963Z,96663.88
2022-11-15T08:05:35.299Z,96657.28
2022-11-15T08:08:22.643Z,96653.34
2022-11-15T08:11:09.309Z,96648.47
2022-11-15T08:13:56.567Z,96653.59
2022-11-15T08:16:43.397Z,96653.91
2022-11-15T08:19:30.089Z,96651.16
2022-11-15T08:22:18.451Z,96647.94
2022-11-15T08:25:06.270Z,96654.94
2022-11-15T08:27:55.156Z,96661.34
2022-11-15T08:30:46.445Z,96649.34
2022-11-15T08:33:34.988Z,96645.56
2022-11-15T08:36:22.882Z,96638.97
2022-11-15T08:39:13.518Z,96635.81
2022-11-15T08:42:00.622Z,96635.81
2022-11-15T08:44:47.770Z,96631.72
2022-11-15T08:47:34.994Z,96628.63
2022-11-15T08:50:22.551Z,96623.88
2022-11-15T08:53:10.465Z,96621.31
2022-11-15T08:55:58.672Z,96620.16
2022-11-15T08:58:45.759Z,96617.13
2022-11-15T09:01:33.632Z,96614.75
2022-11-15T09:04:20.774Z,96618.91
2022-11-15T09:07:07.544Z,96605.91
2022-11-15T09:09:54.553Z,96598.28
2022-11-15T09:12:42.754Z,96595.28
2022-11-15T09:15:29.651Z,96595.19
2022-11-15T09:18:16.800Z,96596.03
2022-11-15T09:21:04.609Z,96590.56
2022-11-15T09:23:53.181Z,96591.53
2022-11-15T09:26:40.294Z,96595.03
2022-11-15T09:29:28.563Z,96582.56
2022-11-15T09:32:15.530Z,96578.41
2022-11-15T09:35:02.517Z,96577.91
2022-11-15T09:37:54.952Z,96572.97
2022-11-15T09:40:43.605Z,96567.97
2022-11-15T09:43:44.886Z,96569.72
2022-11-15T09:46:48.102Z,96564.59
2022-11-15T09:49:25.826Z,96562.19
2022-11-15T09:52:12.482Z,96557.19
2022-11-15T09:54:56.100Z,96547.22
2022-11-15T09:57:34.757Z,96542.59
2022-11-15T10:03:15.381Z,96546.09
2022-11-15T10:05:48.125Z,96547.00
2022-11-15T10:08:50.048Z,96544.41
2022-11-15T10:11:36.689Z,96538.13
2022-11-15T10:14:14.050Z,96541.97
2022-11-15T10:17:38.309Z,96536.53
2022-11-15T10:20:21.855Z,96521.53
2022-11-15T10:22:52.892Z,96514.78
2022-11-15T10:25:25.709Z,96502.41
2022-11-15T10:28:01.298Z,96494.50
2022-11-15T10:30:35.808Z,96488.25
2022-11-15T10:33:15.088Z,96480.97
2022-11-15T10:35:44.940Z,96481.94
2022-11-15T10:38:14.509Z,96476.88
2022-11-15T10:40:44.754Z,96470.81
2022-11-15T10:43:18.998Z,96458.75
2022-11-15T10:45:49.745Z,96455.97
2022-11-15T10:48:27.368Z,96458.28
2022-11-15T10:50:58.396Z,96442.56
2022-11-15T10:53:35.172Z,96439.63
2022-11-15T10:56:09.118Z,96438.75
2022-11-15T10:58:42.134Z,96437.06
2022-11-15T11:01:21.086Z,96428.13
2022-11-15T11:04:02.989Z,96421.28
2022-11-15T11:06:47.846Z,96416.63
2022-11-15T11:09:30.900Z,96417.66
2022-11-15T11:11:59.361Z,96421.19
2022-11-15T11:14:32.316Z,96410.50
2022-11-15T11:17:15.246Z,96402.13
2022-11-15T11:20:04.577Z,96407.09
2022-11-15T11:22:44.381Z,96402.31
2022-11-15T11:25:26.856Z,96411.13
2022-11-15T11:28:12.353Z,96411.38
2022-11-15T11:30:51.847Z,96409.56
2022-11-15T11:33:24.299Z,96411.94
2022-11-15T11:36:09.360Z,96409.78
2022-11-15T11:39:00.052Z,96404.41
2022-11-15T11:41:51.296Z,96402.41
2022-11-15T11:44:40.185Z,96402.53
2022-11-15T11:47:13.797Z,96404.41
2022-11-15T11:49:50.138Z,96401.25
2022-11-15T11:52:27.829Z,96399.06
2022-11-15T11:55:13.843Z,96387.69
2022-11-15T11:57:50.188Z,96378.03
2022-11-15T12:00:23.390Z,96371.88
2022-11-15T12:03:10.297Z,96362.44
2022-11-15T12:05:43.958Z,96361.53
2022-11-15T12:08:31.464Z,96360.44
2022-11-15T12:11:14.410Z,96353.84
2022-11-15T12:13:44.838Z,96348.13
2022-11-15T12:16:19.063Z,96346.16
2022-11-15T12:18:52.411Z,96340.34
2022-11-15T12:21:28.884Z,96335.53
2022-11-15T12:24:06.282Z,96333.81
2022-11-15T12:26:42.319Z,96331.69
2022-11-15T12:29:21.805Z,96333.97
2022-11-15T12:31:57.797Z,96332.47
2022-11-15T12:34:43.529Z,96329.56
2022-11-15T12:37:56.194Z,96326.19
2022-11-15T12:40:38.211Z,96333.81
2022-11-15T12:43:44.618Z,96326.19
2022-11-15T12:46:25.358Z,96331.19
2022-11-15T12:48:59.266Z,96327.41
2022-11-15T12:52:09.607Z,96331.00
2022-11-15T12:55:32.268Z,96326.28
2022-11-15T12:58:31.272Z,96321.34
2022-11-15T13:01:01.179Z,96323.34
2022-11-15T13:03:34.052Z,96317.19
2022-11-15T13:06:32.322Z,96313.19
2022-11-15T13:09:00.697Z,96316.41
2022-11-15T13:11:48.652Z,96307.47
2022-11-15T13:14:50.926Z,96308.47
2022-11-15T13:17:34.829Z,96306.47
2022-11-15T13:20:23.575Z,96314.00
2022-11-15T13:22:55.770Z,96311.63
2022-11-15T13:25:50.791Z,96312.97
2022-11-15T13:28:32.411Z,96310.06
2022-11-15T13:31:03.335Z,96298.63
2022-11-15T13:33:37.471Z,96306.88
2022-11-15T13:36:14.697Z,96310.59
2022-11-15T13:38:44.156Z,96301.25
2022-11-15T13:41:22.348Z,96306.50
2022-11-15T13:43:52.449Z,96300.16
2022-11-15T13:46:23.245Z,96303.34
2022-11-15T13:48:57.592Z,96301.69
2022-11-15T13:51:39.363Z,96306.06
2022-11-15T13:54:21.161Z,96299.75
2022-11-15T13:56:54.093Z,96300.56
2022-11-15T13:59:27.166Z,96292.59
2022-11-15T14:01:57.444Z,96285.84
2022-11-15T14:04:31.193Z,96278.28
2022-11-15T14:07:01.913Z,96280.28
2022-11-15T14:09:42.140Z,96280.91
2022-11-15T14:12:31.849Z,96270.94
2022-11-15T14:15:03.400Z,96261.13
2022-11-15T14:17:45.636Z,96253.44
2022-11-15T14:20:31.660Z,96253.84
2022-11-15T14:23:02.156Z,96247.06
2022-11-15T14:25:32.187Z,96246.72
2022-11-15T14:28:16.548Z,96245.16
2022-11-15T14:30:51.055Z,96247.13
2022-11-15T14:33:31.226Z,96242.78
2022-11-15T14:36:05.068Z,96243.53
2022-11-15T14:38:33.960Z,96251.38
2022-11-15T14:41:02.559Z,96249.97
2022-11-15T14:43:31.101Z,96245.75
2022-11-15T14:46:00.202Z,96245.41
2022-11-15T14:48:28.687Z,96252.13
2022-11-15T14:50:57.420Z,96243.97
2022-11-15T14:53:27.075Z,96230.25
2022-11-15T14:55:55.393Z,96231.38
2022-11-15T14:58:23.742Z,96236.88
2022-11-15T15:00:52.429Z,96234.50
2022-11-15T15:03:21.038Z,96239.53
2022-11-15T15:05:49.728Z,96241.66
2022-11-15T15:08:18.407Z,96236.72
2022-11-15T15:10:48.757Z,96232.38
2022-11-15T15:13:20.569Z,96232.03
2022-11-15T15:15:50.251Z,96229.19
2022-11-15T15:18:21.132Z,96227.41
2022-11-15T15:20:56.664Z,96225.78
2022-11-15T15:23:26.604Z,96227.94
2022-11-15T15:25:56.645Z,96220.31
2022-11-15T15:28:27.638Z,96215.56
2022-11-15T15:30:59.964Z,96216.13
2022-11-15T15:33:28.591Z,96217.56
2022-11-15T15:35:57.208Z,96218.88
2022-11-15T15:38:25.843Z,96199.81
2022-11-15T15:40:55.675Z,96207.94
2022-11-15T15:43:24.258Z,96203.97
2022-11-15T15:45:52.896Z,96205.38
2022-11-15T15:48:21.480Z,96216.41
2022-11-15T15:50:50.346Z,96215.63
2022-11-15T15:53:19.257Z,96212.59
2022-11-15T15:55:47.851Z,96210.31
2022-11-15T15:58:17.822Z,96204.41
2022-11-15T16:00:46.095Z,96211.09
2022-11-15T16:03:14.378Z,96205.03
2022-11-15T16:05:43.003Z,96199.28
2022-11-15T16:08:20.505Z,96202.63
2022-11-15T16:10:49.397Z,96201.00
2022-11-15T16:13:19.498Z,96201.84
2022-11-15T16:15:52.580Z,96203.22
2022-11-15T16:18:21.336Z,96195.72
2022-11-15T16:20:53.091Z,96209.63
2022-11-15T16:23:24.554Z,96197.22
2022-11-15T16:25:56.535Z,96191.31
2022-11-15T16:28:29.328Z,96187.66
2022-11-15T16:31:08.070Z,96191.94
2022-11-15T16:33:37.162Z,96191.16
2022-11-15T16:36:07.741Z,96188.44
2022-11-15T16:38:37.000Z,96183.16
2022-11-15T16:41:05.861Z,96187.66
2022-11-15T16:43:35.489Z,96180.16
2022-11-15T16:46:15.110Z,96181.66
2022-11-15T16:48:43.416Z,96176.25
2022-11-15T16:51:12.042Z,96166.34
2022-11-15T16:53:40.896Z,96157.78
2022-11-15T16:56:24.114Z,96164.16
2022-11-15T16:58:54.749Z,96164.00
2022-11-15T17:01:26.412Z,96163.00
2022-11-15T17:03:56.020Z,96171.47
2022-11-15T17:06:25.957Z,96155.53
2022-11-15T17:08:56.620Z,96155.06
2022-11-15T17:11:25.211Z,96158.41
2022-11-15T17:13:59.627Z,96153.63
2022-11-15T17:16:28.354Z,96154.25
2022-11-15T17:18:56.942Z,96142.94
2022-11-15T17:21:33.423Z,96139.91
2022-11-15T17:24:02.021Z,96136.03
2022-11-15T17:26:33.978Z,96138.44
2022-11-15T17:29:07.928Z,96128.69
2022-11-15T17:31:37.162Z,96133.50
2022-11-15T17:34:06.993Z,96123.09
2022-11-15T17:36:36.478Z,96118.16
2022-11-15T17:39:05.769Z,96115.63
2022-11-15T17:41:34.353Z,96111.13
2022-11-15T17:44:03.632Z,96108.25
2022-11-15T17:46:36.379Z,96114.34
2022-11-15T17:49:05.044Z,96108.72
2022-11-15T17:51:34.105Z,96111.13
2022-11-15T17:54:02.431Z,96100.41
2022-11-15T17:56:31.881Z,96099.63
2022-11-15T17:59:01.671Z,96099.78
2022-11-15T18:01:31.992Z,96101.69
2022-11-15T18:04:04.909Z,96095.94
2022-11-15T18:06:35.552Z,96097.22
2022-11-15T18:09:05.544Z,96089.38
2022-11-15T18:11:38.430Z,96084.59
2022-11-15T18:14:09.411Z,96073.72
2022-11-15T18:16:40.263Z,96079.44
2022-11-15T18:19:13.273Z,96073.78
2022-11-15T18:21:59.184Z,96077.38
2022-11-15T18:24:30.365Z,96075.41
2022-11-15T18:27:00.151Z,96078.28
2022-11-15T18:29:28.884Z,96074.75
2022-11-15T18:31:57.538Z,96076.34
2022-11-15T18:34:32.139Z,96087.88
2022-11-15T18:37:00.979Z,96084.03
2022-11-15T18:39:29.345Z,96083.75
2022-11-15T18:41:57.962Z,96083.47
2022-11-15T18:44:26.523Z,96071.97
2022-11-15T18:46:54.801Z,96070.97
2022-11-15T18:49:23.436Z,96071.47
2022-11-15T18:51:53.072Z,96066.94
2022-11-15T18:54:22.820Z,96059.44
2022-11-15T18:56:53.909Z,96059.44
2022-11-15T18:59:22.475Z,96061.97
2022-11-15T19:01:52.195Z,96056.72
2022-11-15T19:04:22.582Z,96059.44
2022-11-15T19:06:53.928Z,96063.13
2022-11-15T19:09:24.494Z,96060.59
2022-11-15T19:11:53.075Z,96058.06
2022-11-15T19:14:24.194Z,96055.22
2022-11-15T19:16:54.623Z,96042.84
2022-11-15T19:19:25.546Z,96046.41
2022-11-15T19:21:57.066Z,96048.50
2022-11-15T19:24:27.070Z,96047.53
2022-11-15T19:26:55.926Z,96033.28
2022-11-15T19:29:24.620Z,96030.09
2022-11-15T19:31:53.250Z,96033.13
2022-11-15T19:34:21.826Z,96035.81
2022-11-15T19:36:50.415Z,96025.91
2022-11-15T19:39:20.050Z,96030.09
2022-11-15T19:41:50.025Z,96028.47
2022-11-15T19:44:18.946Z,96029.78
2022-11-15T19:46:47.417Z,96029.81
2022-11-15T19:49:15.913Z,96034.16
2022-11-15T19:51:45.236Z,96037.84
2022-11-15T19:54:13.666Z,96041.06
2022-11-15T19:56:43.371Z,96038.88
2022-11-15T19:59:13.582Z,96026.38
2022-11-15T20:01:42.672Z,96019.53
2022-11-15T20:04:11.294Z,96022.41
2022-11-15T20:06:42.470Z,96025.34
2022-11-15T20:09:15.497Z,96043.69
2022-11-15T20:11:45.681Z,96040.03
2022-11-15T20:14:14.095Z,96025.03
2022-11-15T20:16:43.611Z,96022.16
2022-11-15T20:19:13.026Z,96022.00
2022-11-15T20:21:41.669Z,96031.28
2022-11-15T20:24:10.312Z,96030.31
2022-11-15T20:26:39.341Z,96026.63
2022-11-15T20:29:10.058Z,96024.25
2022-11-15T20:31:38.645Z,96022.63
2022-11-15T20:34:07.354Z,96017.84
2022-11-15T20:36:35.613Z,96013.06
2022-11-15T20:39:04.653Z,96010.19
2022-11-15T20:41:33.231Z,96008.88
2022-11-15T20:44:03.013Z,96014.31
2022-11-15T20:46:32.732Z,96021.47
2022-11-15T20:49:01.362Z,96007.59
2022-11-15T20:51:29.914Z,96008.38
2022-11-15T20:53:58.617Z,96010.44
2022-11-15T20:56:27.189Z,96009.16
2022-11-15T20:58:56.571Z,96010.44
2022-11-15T21:01:25.569Z,96009.31
2022-11-15T21:03:56.865Z,96001.53
2022-11-15T21:06:27.136Z,95992.63
2022-11-15T21:09:14.086Z,95990.22
2022-11-15T21:12:00.449Z,95987.03
2022-11-15T21:14:28.788Z,95976.19
2022-11-15T21:16:57.497Z,95982.44
2022-11-15T21:19:32.580Z,95964.06
2022-11-15T21:22:05.673Z,95961.00
2022-11-15T21:24:34.317Z,95961.78
2022-11-15T21:27:03.337Z,95951.06
2022-11-15T21:29:37.439Z,95942.75
2022-11-15T21:32:08.235Z,95935.38
2022-11-15T21:34:39.047Z,95936.94
2022-11-15T21:37:07.944Z,95933.91
2022-11-15T21:39:36.507Z,95925.91
2022-11-15T21:42:06.072Z,95928.28
2022-11-15T21:44:34.393Z,95925.56
2022-11-15T21:47:02.753Z,95924.44
2022-11-15T21:49:31.357Z,95927.16
2022-11-15T21:52:01.321Z,95916.97
2022-11-15T21:54:30.005Z,95915.50
2022-11-15T21:56:58.642Z,95910.72
2022-11-15T21:59:27.321Z,95913.28
2022-11-15T22:02:13.622Z,95912.00
2022-11-15T22:04:41.941Z,95897.19
2022-11-15T22:07:11.615Z,95889.22
2022-11-15T22:09:40.303Z,95881.91
2022-11-15T22:12:08.616Z,95883.03
2022-11-15T22:14:36.959Z,95871.56
2022-11-15T22:17:05.573Z,95869.97
2022-11-15T22:19:34.681Z,95861.66
2022-11-15T22:22:03.340Z,95860.41
2022-11-15T22:24:33.145Z,95866.16
2022-11-15T22:27:01.738Z,95869.22
2022-11-15T22:29:30.309Z,95864.94
2022-11-15T22:31:58.891Z,95876.13
2022-11-15T22:34:27.507Z,95868.81
2022-11-15T22:37:19.988Z,95866.09
2022-11-15T22:39:45.674Z,95869.91
2022-11-15T22:42:15.634Z,95864.66
2022-11-15T22:44:46.976Z,95868.03
2022-11-15T22:47:15.254Z,95866.91
2022-11-15T22:49:44.534Z,95856.84
2022-11-15T22:52:13.658Z,95854.94
2022-11-15T22:54:42.066Z,95851.88
2022-11-15T22:57:11.736Z,95840.22
2022-11-15T22:59:41.144Z,95839.25
2022-11-15T23:02:09.860Z,95828.75
2022-11-15T23:04:38.135Z,95817.75
2022-11-15T23:07:06.752Z,95805.66
2022-11-15T23:09:35.347Z,95807.75
2022-11-15T23:12:21.193Z,95800.59
2022-11-15T23:14:50.843Z,95804.88
2022-11-15T23:17:19.530Z,95803.44
2022-11-15T23:19:48.501Z,95812.22
2022-11-15T23:22:34.213Z,95818.09
2022-11-15T23:25:02.828Z,95821.44
2022-11-15T23:27:31.366Z,95835.78
2022-11-15T23:30:33.114Z,95827.66
2022-11-15T23:33:19.287Z,95823.06
2022-11-15T23:35:55.246Z,95820.00
2022-11-15T23:38:23.509Z,95815.88
2022-11-15T23:40:52.780Z,95808.69
2022-11-15T23:43:21.840Z,95808.34
2022-11-15T23:45:51.697Z,95793.84
2022-11-15T23:48:20.316Z,95819.22
2022-11-15T23:50:49.571Z,95813.78
2022-11-15T23:53:18.286Z,95821.47
2022-11-15T23:55:56.111Z,95812.34
2022-11-15T23:58:24.748Z,95806.94
